TimeEST,TemperatureF,Dew PointF,Humidity,Sea Level PressureIn,VisibilityMPH,Wind Direction,Wind SpeedMPH,Gust SpeedMPH,PrecipitationIn,Events,Conditions,WindDirDegrees,DateUTC
12:15 AM,1.4,-9.4,61,30.36,10.0,NNW,6.9,-,N/A,,Clear,340,2013-12-14 05:15:00
12:35 AM,1.4,-9.4,61,30.37,10.0,North,8.1,-,N/A,,Clear,360,2013-12-14 05:35:00
12:55 AM,1.4,-11.2,56,30.38,10.0,NNW,9.2,-,N/A,,Clear,330,2013-12-14 05:55:00
1:15 AM,1.4,-11.2,56,30.39,10.0,NW,8.1,-,N/A,,Clear,320,2013-12-14 06:15:00
1:35 AM,1.4,-11.2,56,30.41,10.0,NW,5.8,-,N/A,,Clear,310,2013-12-14 06:35:00
1:55 AM,-0.4,-11.2,60,30.42,10.0,North,5.8,-,N/A,,Clear,360,2013-12-14 06:55:00
2:15 AM,-0.4,-11.2,60,30.43,10.0,North,4.6,-,N/A,,Clear,360,2013-12-14 07:15:00
2:35 AM,-0.4,-11.2,60,30.44,10.0,North,5.8,-,N/A,,Clear,360,2013-12-14 07:35:00
2:55 AM,-0.4,-11.2,60,30.43,10.0,NNW,8.1,-,N/A,,Clear,330,2013-12-14 07:55:00
3:15 AM,-0.4,-11.2,60,30.44,10.0,NW,8.1,-,N/A,,Clear,320,2013-12-14 08:15:00
3:35 AM,-0.4,-11.2,60,30.45,10.0,NW,5.8,-,N/A,,Clear,320,2013-12-14 08:35:00
3:55 AM,-0.4,-11.2,60,30.47,10.0,WNW,5.8,-,N/A,,Clear,300,2013-12-14 08:55:00
4:15 AM,-0.4,-11.2,60,30.48,10.0,NW,4.6,-,N/A,,Clear,310,2013-12-14 09:15:00
4:35 AM,-2.2,-11.2,66,30.48,10.0,WNW,3.5,-,N/A,,Clear,300,2013-12-14 09:35:00
4:55 AM,-2.2,-11.2,66,30.49,10.0,NW,4.6,-,N/A,,Clear,320,2013-12-14 09:55:00
5:15 AM,-2.2,-11.2,66,30.49,10.0,Calm,Calm,-,N/A,,Clear,0,2013-12-14 10:15:00
5:35 AM,-2.2,-11.2,66,30.50,10.0,NNW,3.5,-,N/A,,Clear,330,2013-12-14 10:35:00
5:55 AM,-2.2,-11.2,66,30.51,10.0,NNW,3.5,-,N/A,,Clear,340,2013-12-14 10:55:00
6:15 AM,-2.2,-11.2,66,30.52,10.0,North,3.5,-,N/A,,Clear,360,2013-12-14 11:15:00
6:35 AM,-4.0,-11.2,71,30.53,10.0,Calm,Calm,-,N/A,,Clear,0,2013-12-14 11:35:00
6:55 AM,-4.0,-11.2,71,30.55,10.0,NNW,3.5,-,N/A,,Clear,330,2013-12-14 11:55:00
7:15 AM,-4.0,-11.2,71,30.56,10.0,Calm,Calm,-,N/A,,Clear,0,2013-12-14 12:15:00
7:35 AM,-2.2,-9.4,71,30.57,10.0,Calm,Calm,-,N/A,,Clear,0,2013-12-14 12:35:00
7:55 AM,-0.4,-7.6,72,30.58,10.0,Calm,Calm,-,N/A,,Clear,0,2013-12-14 12:55:00
8:15 AM,1.4,-7.6,66,30.60,10.0,Calm,Calm,-,N/A,,Clear,0,2013-12-14 13:15:00
8:35 AM,3.2,-7.6,61,30.61,10.0,West,3.5,-,N/A,,Clear,280,2013-12-14 13:35:00
8:55 AM,3.2,-7.6,61,30.62,10.0,Calm,Calm,-,N/A,,Clear,0,2013-12-14 13:55:00
9:15 AM,3.2,-7.6,61,30.62,10.0,North,5.8,-,N/A,,Clear,360,2013-12-14 14:15:00
9:35 AM,5.0,-7.6,56,30.62,10.0,NNE,4.6,-,N/A,,Clear,20,2013-12-14 14:35:00
9:55 AM,6.8,-7.6,52,30.61,10.0,North,6.9,-,N/A,,Clear,360,2013-12-14 14:55:00
10:15 AM,6.8,-7.6,52,30.62,10.0,Calm,Calm,-,N/A,,Clear,0,2013-12-14 15:15:00
10:35 AM,8.6,-9.4,44,30.61,10.0,NNE,6.9,-,N/A,,Clear,20,2013-12-14 15:35:00
10:55 AM,8.6,-9.4,44,30.60,10.0,NNE,6.9,-,N/A,,Clear,20,2013-12-14 15:55:00
11:15 AM,8.6,-9.4,44,30.60,10.0,North,6.9,-,N/A,,Clear,360,2013-12-14 16:15:00
11:35 AM,8.6,-9.4,44,30.60,10.0,North,6.9,-,N/A,,Clear,10,2013-12-14 16:35:00
11:55 AM,10.4,-9.4,41,30.60,10.0,NNW,6.9,-,N/A,,Clear,330,2013-12-14 16:55:00
12:15 PM,12.2,-9.4,38,30.60,10.0,NW,5.8,-,N/A,,Clear,310,2013-12-14 17:15:00
12:35 PM,12.2,-9.4,38,30.60,10.0,NW,4.6,-,N/A,,Clear,310,2013-12-14 17:35:00
12:55 PM,12.2,-9.4,38,30.60,10.0,North,5.8,-,N/A,,Clear,10,2013-12-14 17:55:00
1:15 PM,14.0,-9.4,35,30.60,10.0,North,6.9,-,N/A,,Clear,10,2013-12-14 18:15:00
1:35 PM,12.2,-9.4,38,30.61,10.0,NW,6.9,-,N/A,,Clear,320,2013-12-14 18:35:00
1:55 PM,14.0,-9.4,35,30.61,10.0,North,3.5,-,N/A,,Clear,360,2013-12-14 18:55:00
2:15 PM,14.0,-9.4,35,30.60,10.0,NNE,4.6,-,N/A,,Clear,20,2013-12-14 19:15:00
2:35 PM,12.2,-9.4,38,30.61,10.0,North,4.6,-,N/A,,Clear,10,2013-12-14 19:35:00
2:55 PM,14.0,-9.4,35,30.61,10.0,North,4.6,-,N/A,,Clear,10,2013-12-14 19:55:00
3:15 PM,10.4,-9.4,41,30.61,10.0,North,4.6,-,N/A,,Clear,360,2013-12-14 20:15:00
3:35 PM,10.4,-9.4,41,30.62,10.0,Calm,Calm,-,N/A,,Clear,0,2013-12-14 20:35:00
3:55 PM,8.6,-9.4,44,30.61,10.0,North,3.5,-,N/A,,Clear,360,2013-12-14 20:55:00
4:15 PM,6.8,-7.6,52,30.60,10.0,North,3.5,-,N/A,,Clear,360,2013-12-14 21:15:00
4:35 PM,6.8,-7.6,52,30.59,10.0,North,3.5,-,N/A,,Clear,360,2013-12-14 21:35:00
4:55 PM,6.8,-7.6,52,30.60,10.0,Calm,Calm,-,N/A,,Clear,0,2013-12-14 21:55:00
5:15 PM,6.8,-7.6,52,30.61,10.0,Calm,Calm,-,N/A,,Clear,0,2013-12-14 22:15:00
5:35 PM,6.8,-5.8,56,30.61,8.0,Calm,Calm,-,N/A,,Clear,0,2013-12-14 22:35:00
5:55 PM,6.8,-5.8,56,30.61,10.0,North,3.5,-,N/A,,Clear,360,2013-12-14 22:55:00
6:15 PM,6.8,-5.8,56,30.61,10.0,Calm,Calm,-,N/A,,Clear,0,2013-12-14 23:15:00
6:35 PM,6.8,-2.2,67,30.60,10.0,North,4.6,-,N/A,,Mostly Cloudy,10,2013-12-14 23:35:00
6:55 PM,8.6,-2.2,62,30.60,10.0,North,4.6,-,N/A,,Mostly Cloudy,10,2013-12-14 23:55:00
7:15 PM,8.6,-5.8,52,30.58,10.0,NNE,8.1,-,N/A,,Partly Cloudy,20,2013-12-15 00:15:00
7:35 PM,8.6,-4.0,57,30.57,10.0,NNE,8.1,-,N/A,,Mostly Cloudy,20,2013-12-15 00:35:00
7:55 PM,8.6,-2.2,62,30.55,10.0,NNE,6.9,-,N/A,,Overcast,20,2013-12-15 00:55:00
8:15 PM,8.6,-2.2,62,30.55,10.0,NNE,6.9,-,N/A,,Overcast,30,2013-12-15 01:15:00
8:35 PM,8.6,-2.2,62,30.55,10.0,NE,4.6,-,N/A,,Overcast,40,2013-12-15 01:35:00
8:55 PM,8.6,-4.0,57,30.56,10.0,NNE,4.6,-,N/A,,Overcast,30,2013-12-15 01:55:00
9:15 PM,10.4,-5.8,48,30.56,10.0,NNE,5.8,-,N/A,,Overcast,30,2013-12-15 02:15:00
9:35 PM,10.4,-5.8,48,30.56,10.0,NE,6.9,-,N/A,,Overcast,40,2013-12-15 02:35:00
9:55 PM,10.4,-5.8,48,30.55,10.0,NE,5.8,-,N/A,,Overcast,50,2013-12-15 02:55:00
10:15 PM,10.4,-5.8,48,30.53,10.0,NE,8.1,-,N/A,,Overcast,40,2013-12-15 03:15:00
10:35 PM,10.4,-5.8,48,30.53,10.0,NE,5.8,-,N/A,,Overcast,50,2013-12-15 03:35:00
10:55 PM,10.4,-5.8,48,30.52,10.0,NNE,6.9,-,N/A,,Overcast,30,2013-12-15 03:55:00
11:15 PM,10.4,-4.0,52,30.50,10.0,NNE,10.4,16.1,N/A,,Overcast,30,2013-12-15 04:15:00
11:35 PM,10.4,-4.0,52,30.49,10.0,NNE,9.2,-,N/A,,Overcast,20,2013-12-15 04:35:00
11:55 PM,10.4,-2.2,57,30.44,10.0,NNE,12.7,16.1,N/A,,Overcast,30,2013-12-15 04:55:00